sensor_id;sensor_type;location;lat;lon;timestamp;P1;durP1;ratioP1;P2;durP2;ratioP2
9304;SDS011;4690;52.422;13.486;2024-03-23T00:54:34;21.57;;;6.10;;
9304;SDS011;4690;52.422;13.486;2024-03-23T00:56:59;33.70;;;7.30;;
9304;SDS011;4690;52.422;13.486;2024-03-23T00:59:25;17.63;;;6.10;;
9304;SDS011;4690;52.422;13.486;2024-03-23T01:01:53;17.30;;;6.07;;
9304;SDS011;4690;52.422;13.486;2024-03-23T01:04:22;15.33;;;5.37;;
9304;SDS011;4690;52.422;13.486;2024-03-23T01:06:48;19.70;;;6.10;;
9304;SDS011;4690;52.422;13.486;2024-03-23T01:09:13;26.00;;;6.37;;
9304;SDS011;4690;52.422;13.486;2024-03-23T01:11:39;18.00;;;6.23;;
9304;SDS011;4690;52.422;13.486;2024-03-23T01:14:05;20.37;;;5.90;;
9304;SDS011;4690;52.422;13.486;2024-03-23T01:16:31;25.13;;;6.53;;
9304;SDS011;4690;52.422;13.486;2024-03-23T01:18:57;16.83;;;5.60;;
9304;SDS011;4690;52.422;13.486;2024-03-23T01:21:23;20.07;;;5.67;;
9304;SDS011;4690;52.422;13.486;2024-03-23T01:23:49;29.33;;;6.37;;
9304;SDS011;4690;52.422;13.486;2024-03-23T01:26:15;19.33;;;5.77;;
9304;SDS011;4690;52.422;13.486;2024-03-23T01:28:41;22.37;;;5.60;;
9304;SDS011;4690;52.422;13.486;2024-03-23T01:31:07;14.07;;;5.00;;
9304;SDS011;4690;52.422;13.486;2024-03-23T01:33:33;15.20;;;4.93;;
9304;SDS011;4690;52.422;13.486;2024-03-23T01:35:58;21.87;;;5.50;;
9304;SDS011;4690;52.422;13.486;2024-03-23T01:38:24;15.67;;;5.43;;
9304;SDS011;4690;52.422;13.486;2024-03-23T01:40:55;22.43;;;5.93;;
9304;SDS011;4690;52.422;13.486;2024-03-23T01:43:22;20.87;;;6.10;;
9304;SDS011;4690;52.422;13.486;2024-03-23T01:45:48;22.00;;;5.97;;
9304;SDS011;4690;52.422;13.486;2024-03-23T01:48:14;14.97;;;4.90;;
9304;SDS011;4690;52.422;13.486;2024-03-23T01:50:40;18.00;;;5.83;;
9304;SDS011;4690;52.422;13.486;2024-03-23T01:53:05;13.57;;;5.03;;
9304;SDS011;4690;52.422;13.486;2024-03-23T01:55:32;18.63;;;5.57;;
9304;SDS011;4690;52.422;13.486;2024-03-23T01:57:58;11.90;;;5.07;;
9304;SDS011;4690;52.422;13.486;2024-03-23T02:00:24;11.90;;;4.90;;
9304;SDS011;4690;52.422;13.486;2024-03-23T02:02:52;23.67;;;5.83;;
9304;SDS011;4690;52.422;13.486;2024-03-23T02:05:18;19.63;;;5.73;;
9304;SDS011;4690;52.422;13.486;2024-03-23T02:07:44;19.07;;;6.20;;
9304;SDS011;4690;52.422;13.486;2024-03-23T02:10:10;17.47;;;5.63;;
9304;SDS011;4690;52.422;13.486;2024-03-23T02:12:40;31.53;;;6.67;;
9304;SDS011;4690;52.422;13.486;2024-03-23T02:15:06;20.20;;;6.10;;
9304;SDS011;4690;52.422;13.486;2024-03-23T02:17:34;22.73;;;6.20;;
9304;SDS011;4690;52.422;13.486;2024-03-23T02:20:01;23.07;;;6.33;;
9304;SDS011;4690;52.422;13.486;2024-03-23T02:22:37;35.43;;;6.53;;
9304;SDS011;4690;52.422;13.486;2024-03-23T02:25:04;17.00;;;5.20;;
9304;SDS011;4690;52.422;13.486;2024-03-23T02:27:31;17.17;;;5.63;;
9304;SDS011;4690;52.422;13.486;2024-03-23T02:29:58;19.67;;;5.80;;
9304;SDS011;4690;52.422;13.486;2024-03-23T02:32:24;19.17;;;5.83;;
9304;SDS011;4690;52.422;13.486;2024-03-23T02:34:50;15.73;;;5.23;;
9304;SDS011;4690;52.422;13.486;2024-03-23T02:37:15;18.93;;;5.53;;
9304;SDS011;4690;52.422;13.486;2024-03-23T02:39:41;29.00;;;6.50;;
9304;SDS011;4690;52.422;13.486;2024-03-23T02:42:07;20.77;;;6.07;;
9304;SDS011;4690;52.422;13.486;2024-03-23T02:44:33;25.50;;;6.43;;
9304;SDS011;4690;52.422;13.486;2024-03-23T02:46:58;27.57;;;6.40;;
9304;SDS011;4690;52.422;13.486;2024-03-23T02:49:25;30.73;;;7.27;;
9304;SDS011;4690;52.422;13.486;2024-03-23T02:51:52;15.97;;;4.77;;
9304;SDS011;4690;52.422;13.486;2024-03-23T02:54:17;16.73;;;5.20;;
9304;SDS011;4690;52.422;13.486;2024-03-23T02:56:43;22.17;;;5.53;;
9304;SDS011;4690;52.422;13.486;2024-03-23T02:59:09;18.33;;;5.50;;
9304;SDS011;4690;52.422;13.486;2024-03-23T03:01:35;17.23;;;5.40;;
9304;SDS011;4690;52.422;13.486;2024-03-23T03:04:00;17.33;;;5.57;;
9304;SDS011;4690;52.422;13.486;2024-03-23T03:06:26;21.00;;;6.10;;
9304;SDS011;4690;52.422;13.486;2024-03-23T03:08:54;21.90;;;6.00;;
9304;SDS011;4690;52.422;13.486;2024-03-23T03:11:20;21.23;;;5.63;;
9304;SDS011;4690;52.422;13.486;2024-03-23T03:13:46;17.87;;;5.47;;
9304;SDS011;4690;52.422;13.486;2024-03-23T03:16:12;26.67;;;6.43;;
9304;SDS011;4690;52.422;13.486;2024-03-23T03:18:38;17.90;;;5.53;;
9304;SDS011;4690;52.422;13.486;2024-03-23T03:21:05;22.53;;;5.77;;
9304;SDS011;4690;52.422;13.486;2024-03-23T03:23:36;23.07;;;5.83;;
9304;SDS011;4690;52.422;13.486;2024-03-23T03:26:05;23.23;;;5.63;;
9304;SDS011;4690;52.422;13.486;2024-03-23T03:28:31;24.53;;;6.20;;
9304;SDS011;4690;52.422;13.486;2024-03-23T03:30:58;21.10;;;5.70;;
9304;SDS011;4690;52.422;13.486;2024-03-23T03:33:25;25.20;;;6.37;;
9304;SDS011;4690;52.422;13.486;2024-03-23T03:35:52;27.13;;;6.30;;
9304;SDS011;4690;52.422;13.486;2024-03-23T03:38:19;30.20;;;6.57;;
9304;SDS011;4690;52.422;13.486;2024-03-23T03:40:45;19.30;;;5.80;;
9304;SDS011;4690;52.422;13.486;2024-03-23T03:43:11;19.87;;;5.40;;
9304;SDS011;4690;52.422;13.486;2024-03-23T03:45:37;18.77;;;5.80;;
9304;SDS011;4690;52.422;13.486;2024-03-23T03:48:03;17.53;;;5.80;;
9304;SDS011;4690;52.422;13.486;2024-03-23T03:50:29;21.10;;;6.37;;
9304;SDS011;4690;52.422;13.486;2024-03-23T03:52:55;31.00;;;6.97;;
9304;SDS011;4690;52.422;13.486;2024-03-23T03:55:21;26.20;;;6.27;;
9304;SDS011;4690;52.422;13.486;2024-03-23T03:57:47;25.87;;;6.50;;
9304;SDS011;4690;52.422;13.486;2024-03-23T04:00:12;16.97;;;5.77;;
9304;SDS011;4690;52.422;13.486;2024-03-23T04:02:39;16.40;;;5.80;;
9304;SDS011;4690;52.422;13.486;2024-03-23T04:05:05;20.47;;;6.43;;
9304;SDS011;4690;52.422;13.486;2024-03-23T04:07:33;21.23;;;6.90;;
9304;SDS011;4690;52.422;13.486;2024-03-23T04:09:59;35.67;;;7.57;;
9304;SDS011;4690;52.422;13.486;2024-03-23T04:12:25;28.30;;;6.87;;
9304;SDS011;4690;52.422;13.486;2024-03-23T04:14:51;36.97;;;7.50;;
9304;SDS011;4690;52.422;13.486;2024-03-23T04:17:17;31.93;;;7.03;;
9304;SDS011;4690;52.422;13.486;2024-03-23T04:19:43;25.80;;;6.93;;
9304;SDS011;4690;52.422;13.486;2024-03-23T04:22:09;30.60;;;7.13;;
9304;SDS011;4690;52.422;13.486;2024-03-23T04:24:35;23.73;;;6.80;;
9304;SDS011;4690;52.422;13.486;2024-03-23T04:27:01;19.40;;;5.87;;
9304;SDS011;4690;52.422;13.486;2024-03-23T04:29:28;17.17;;;5.87;;
9304;SDS011;4690;52.422;13.486;2024-03-23T04:31:53;30.20;;;7.23;;
9304;SDS011;4690;52.422;13.486;2024-03-23T04:34:20;20.20;;;6.10;;
9304;SDS011;4690;52.422;13.486;2024-03-23T04:36:47;30.93;;;6.60;;
9304;SDS011;4690;52.422;13.486;2024-03-23T04:39:13;23.23;;;6.20;;
9304;SDS011;4690;52.422;13.486;2024-03-23T04:41:39;28.23;;;6.27;;
9304;SDS011;4690;52.422;13.486;2024-03-23T04:44:05;19.63;;;5.40;;
9304;SDS011;4690;52.422;13.486;2024-03-23T04:46:31;17.23;;;5.73;;
9304;SDS011;4690;52.422;13.486;2024-03-23T04:48:57;19.00;;;5.77;;
9304;SDS011;4690;52.422;13.486;2024-03-23T04:51:23;20.63;;;5.50;;
9304;SDS011;4690;52.422;13.486;2024-03-23T04:53:49;26.03;;;6.27;;
9304;SDS011;4690;52.422;13.486;2024-03-23T04:56:15;20.77;;;5.77;;
9304;SDS011;4690;52.422;13.486;2024-03-23T04:58:42;25.00;;;6.23;;
9304;SDS011;4690;52.422;13.486;2024-03-23T05:01:08;18.35;;;6.53;;
9304;SDS011;4690;52.422;13.486;2024-03-23T05:03:35;30.40;;;7.03;;
9304;SDS011;4690;52.422;13.486;2024-03-23T05:06:01;17.10;;;5.17;;
9304;SDS011;4690;52.422;13.486;2024-03-23T05:08:27;25.70;;;6.30;;
9304;SDS011;4690;52.422;13.486;2024-03-23T05:10:52;15.67;;;4.97;;
9304;SDS011;4690;52.422;13.486;2024-03-23T05:13:18;19.13;;;5.60;;
9304;SDS011;4690;52.422;13.486;2024-03-23T05:15:44;17.07;;;5.30;;
9304;SDS011;4690;52.422;13.486;2024-03-23T05:18:17;15.87;;;4.67;;
9304;SDS011;4690;52.422;13.486;2024-03-23T05:20:42;12.10;;;3.97;;
9304;SDS011;4690;52.422;13.486;2024-03-23T05:23:09;15.43;;;4.50;;
9304;SDS011;4690;52.422;13.486;2024-03-23T05:25:34;13.27;;;4.37;;
9304;SDS011;4690;52.422;13.486;2024-03-23T05:28:00;8.57;;;3.53;;
9304;SDS011;4690;52.422;13.486;2024-03-23T05:30:26;11.50;;;3.50;;
9304;SDS011;4690;52.422;13.486;2024-03-23T05:32:52;18.20;;;4.27;;
9304;SDS011;4690;52.422;13.486;2024-03-23T05:35:18;13.67;;;4.00;;
9304;SDS011;4690;52.422;13.486;2024-03-23T05:37:43;12.00;;;3.70;;
9304;SDS011;4690;52.422;13.486;2024-03-23T05:40:09;8.83;;;3.63;;
9304;SDS011;4690;52.422;13.486;2024-03-23T05:42:37;10.27;;;3.40;;
9304;SDS011;4690;52.422;13.486;2024-03-23T05:45:04;12.57;;;3.93;;
9304;SDS011;4690;52.422;13.486;2024-03-23T05:47:31;13.23;;;3.93;;
9304;SDS011;4690;52.422;13.486;2024-03-23T05:49:57;8.23;;;3.30;;
9304;SDS011;4690;52.422;13.486;2024-03-23T05:52:23;9.40;;;3.57;;
9304;SDS011;4690;52.422;13.486;2024-03-23T05:54:50;15.43;;;4.10;;
9304;SDS011;4690;52.422;13.486;2024-03-23T05:57:17;12.40;;;3.80;;
9304;SDS011;4690;52.422;13.486;2024-03-23T05:59:44;6.83;;;3.50;;
9304;SDS011;4690;52.422;13.486;2024-03-23T06:02:10;8.00;;;3.53;;
9304;SDS011;4690;52.422;13.486;2024-03-23T06:04:36;11.03;;;4.33;;
9304;SDS011;4690;52.422;13.486;2024-03-23T06:07:02;16.03;;;5.33;;
9304;SDS011;4690;52.422;13.486;2024-03-23T06:09:31;13.27;;;4.87;;
9304;SDS011;4690;52.422;13.486;2024-03-23T06:11:57;14.43;;;4.47;;
9304;SDS011;4690;52.422;13.486;2024-03-23T06:14:22;13.70;;;4.83;;
9304;SDS011;4690;52.422;13.486;2024-03-23T06:16:48;11.70;;;4.70;;
9304;SDS011;4690;52.422;13.486;2024-03-23T06:19:14;13.67;;;5.10;;
9304;SDS011;4690;52.422;13.486;2024-03-23T06:21:44;15.17;;;5.03;;
9304;SDS011;4690;52.422;13.486;2024-03-23T06:24:10;14.77;;;4.70;;
9304;SDS011;4690;52.422;13.486;2024-03-23T06:26:37;12.70;;;5.00;;
9304;SDS011;4690;52.422;13.486;2024-03-23T06:29:03;12.63;;;5.03;;
9304;SDS011;4690;52.422;13.486;2024-03-23T06:31:30;8.67;;;4.07;;
9304;SDS011;4690;52.422;13.486;2024-03-23T06:33:56;16.30;;;5.10;;
9304;SDS011;4690;52.422;13.486;2024-03-23T06:36:22;11.50;;;5.17;;
9304;SDS011;4690;52.422;13.486;2024-03-23T06:38:48;12.73;;;5.20;;
9304;SDS011;4690;52.422;13.486;2024-03-23T06:41:13;16.90;;;5.57;;
9304;SDS011;4690;52.422;13.486;2024-03-23T06:43:39;12.73;;;5.87;;
9304;SDS011;4690;52.422;13.486;2024-03-23T06:46:05;16.07;;;5.63;;
9304;SDS011;4690;52.422;13.486;2024-03-23T06:48:31;11.90;;;5.60;;
9304;SDS011;4690;52.422;13.486;2024-03-23T06:50:57;11.90;;;5.53;;
9304;SDS011;4690;52.422;13.486;2024-03-23T06:53:23;13.87;;;5.70;;
9304;SDS011;4690;52.422;13.486;2024-03-23T06:55:50;12.67;;;5.07;;
9304;SDS011;4690;52.422;13.486;2024-03-23T06:58:18;15.97;;;6.00;;
9304;SDS011;4690;52.422;13.486;2024-03-23T07:00:45;15.97;;;6.20;;
9304;SDS011;4690;52.422;13.486;2024-03-23T07:03:11;12.30;;;5.67;;
9304;SDS011;4690;52.422;13.486;2024-03-23T07:05:37;19.50;;;6.33;;
9304;SDS011;4690;52.422;13.486;2024-03-23T07:08:03;17.17;;;6.40;;
9304;SDS011;4690;52.422;13.486;2024-03-23T07:10:29;11.83;;;5.43;;
9304;SDS011;4690;52.422;13.486;2024-03-23T07:12:55;17.47;;;6.53;;
9304;SDS011;4690;52.422;13.486;2024-03-23T07:15:20;10.83;;;5.30;;
9304;SDS011;4690;52.422;13.486;2024-03-23T07:17:47;21.23;;;6.40;;
9304;SDS011;4690;52.422;13.486;2024-03-23T07:20:13;11.13;;;5.43;;
9304;SDS011;4690;52.422;13.486;2024-03-23T07:22:39;13.70;;;5.80;;
9304;SDS011;4690;52.422;13.486;2024-03-23T07:25:05;20.57;;;6.17;;
9304;SDS011;4690;52.422;13.486;2024-03-23T07:27:32;13.77;;;5.17;;
9304;SDS011;4690;52.422;13.486;2024-03-23T07:29:58;15.23;;;6.20;;
9304;SDS011;4690;52.422;13.486;2024-03-23T07:32:26;15.00;;;6.20;;
9304;SDS011;4690;52.422;13.486;2024-03-23T07:34:52;12.03;;;5.47;;
9304;SDS011;4690;52.422;13.486;2024-03-23T07:37:18;15.93;;;5.97;;
9304;SDS011;4690;52.422;13.486;2024-03-23T07:39:44;20.17;;;5.50;;
9304;SDS011;4690;52.422;13.486;2024-03-23T07:42:09;13.27;;;4.90;;
9304;SDS011;4690;52.422;13.486;2024-03-23T07:44:35;12.77;;;5.10;;
9304;SDS011;4690;52.422;13.486;2024-03-23T07:47:01;18.57;;;5.10;;
9304;SDS011;4690;52.422;13.486;2024-03-23T07:49:27;11.67;;;4.67;;
9304;SDS011;4690;52.422;13.486;2024-03-23T07:51:52;13.33;;;5.00;;
9304;SDS011;4690;52.422;13.486;2024-03-23T07:54:18;14.07;;;4.47;;
9304;SDS011;4690;52.422;13.486;2024-03-23T07:56:44;11.10;;;4.70;;
9304;SDS011;4690;52.422;13.486;2024-03-23T07:59:10;14.23;;;4.73;;
9304;SDS011;4690;52.422;13.486;2024-03-23T08:01:36;16.53;;;5.30;;
9304;SDS011;4690;52.422;13.486;2024-03-23T08:04:01;12.80;;;5.10;;
9304;SDS011;4690;52.422;13.486;2024-03-23T08:06:27;16.87;;;5.07;;
9304;SDS011;4690;52.422;13.486;2024-03-23T08:08:57;11.53;;;3.83;;
9304;SDS011;4690;52.422;13.486;2024-03-23T08:11:26;10.73;;;3.97;;
9304;SDS011;4690;52.422;13.486;2024-03-23T08:13:53;10.97;;;3.93;;
9304;SDS011;4690;52.422;13.486;2024-03-23T08:16:20;8.73;;;3.83;;
9304;SDS011;4690;52.422;13.486;2024-03-23T08:18:46;9.97;;;3.83;;
9304;SDS011;4690;52.422;13.486;2024-03-23T08:21:13;12.93;;;4.73;;
9304;SDS011;4690;52.422;13.486;2024-03-23T08:23:39;12.27;;;4.60;;
9304;SDS011;4690;52.422;13.486;2024-03-23T08:26:09;12.53;;;4.77;;
9304;SDS011;4690;52.422;13.486;2024-03-23T08:28:36;20.87;;;5.90;;
9304;SDS011;4690;52.422;13.486;2024-03-23T08:31:04;14.70;;;4.47;;
9304;SDS011;4690;52.422;13.486;2024-03-23T08:33:34;9.13;;;4.60;;
9304;SDS011;4690;52.422;13.486;2024-03-23T08:36:01;13.40;;;5.43;;
9304;SDS011;4690;52.422;13.486;2024-03-23T08:38:32;9.93;;;4.90;;
9304;SDS011;4690;52.422;13.486;2024-03-23T08:41:00;16.20;;;5.97;;
9304;SDS011;4690;52.422;13.486;2024-03-23T08:43:32;13.40;;;5.43;;
9304;SDS011;4690;52.422;13.486;2024-03-23T08:46:04;14.67;;;5.47;;
9304;SDS011;4690;52.422;13.486;2024-03-23T08:48:40;10.77;;;4.07;;
9304;SDS011;4690;52.422;13.486;2024-03-23T08:51:11;7.90;;;4.00;;
9304;SDS011;4690;52.422;13.486;2024-03-23T08:53:40;10.73;;;3.63;;
9304;SDS011;4690;52.422;13.486;2024-03-23T08:56:06;6.63;;;3.00;;
9304;SDS011;4690;52.422;13.486;2024-03-23T08:58:34;6.13;;;3.00;;
9304;SDS011;4690;52.422;13.486;2024-03-23T09:03:34;12.90;;;3.80;;
9304;SDS011;4690;52.422;13.486;2024-03-23T09:06:08;12.23;;;4.07;;
9304;SDS011;4690;52.422;13.486;2024-03-23T09:08:35;13.00;;;4.23;;
9304;SDS011;4690;52.422;13.486;2024-03-23T09:11:05;10.23;;;4.23;;
9304;SDS011;4690;52.422;13.486;2024-03-23T09:13:38;13.77;;;4.80;;
9304;SDS011;4690;52.422;13.486;2024-03-23T09:16:06;11.70;;;4.13;;
9304;SDS011;4690;52.422;13.486;2024-03-23T09:18:35;13.40;;;4.43;;
9304;SDS011;4690;52.422;13.486;2024-03-23T09:21:02;7.50;;;3.80;;
9304;SDS011;4690;52.422;13.486;2024-03-23T09:23:29;7.43;;;3.43;;
9304;SDS011;4690;52.422;13.486;2024-03-23T09:25:55;9.43;;;3.50;;
9304;SDS011;4690;52.422;13.486;2024-03-23T09:28:21;7.90;;;3.37;;
9304;SDS011;4690;52.422;13.486;2024-03-23T09:30:47;9.70;;;3.70;;
9304;SDS011;4690;52.422;13.486;2024-03-23T09:33:13;13.03;;;4.00;;
9304;SDS011;4690;52.422;13.486;2024-03-23T09:35:39;9.90;;;3.47;;
9304;SDS011;4690;52.422;13.486;2024-03-23T09:38:07;8.77;;;3.37;;
9304;SDS011;4690;52.422;13.486;2024-03-23T09:40:34;9.47;;;3.23;;
9304;SDS011;4690;52.422;13.486;2024-03-23T09:43:06;8.30;;;3.10;;
9304;SDS011;4690;52.422;13.486;2024-03-23T09:45:32;7.73;;;2.87;;
9304;SDS011;4690;52.422;13.486;2024-03-23T09:48:03;5.63;;;2.40;;
9304;SDS011;4690;52.422;13.486;2024-03-23T09:50:31;6.63;;;3.10;;
9304;SDS011;4690;52.422;13.486;2024-03-23T09:52:57;6.43;;;2.97;;
9304;SDS011;4690;52.422;13.486;2024-03-23T09:55:23;5.97;;;2.70;;
9304;SDS011;4690;52.422;13.486;2024-03-23T09:57:49;7.27;;;2.73;;
9304;SDS011;4690;52.422;13.486;2024-03-23T10:00:15;6.80;;;2.87;;
9304;SDS011;4690;52.422;13.486;2024-03-23T10:02:41;9.17;;;3.37;;
9304;SDS011;4690;52.422;13.486;2024-03-23T10:05:20;9.27;;;3.23;;
9304;SDS011;4690;52.422;13.486;2024-03-23T10:07:50;8.77;;;3.53;;
9304;SDS011;4690;52.422;13.486;2024-03-23T10:10:16;11.03;;;3.70;;
9304;SDS011;4690;52.422;13.486;2024-03-23T10:12:46;10.07;;;3.57;;
9304;SDS011;4690;52.422;13.486;2024-03-23T10:15:22;11.73;;;3.93;;
9304;SDS011;4690;52.422;13.486;2024-03-23T10:17:50;6.27;;;3.13;;
9304;SDS011;4690;52.422;13.486;2024-03-23T10:20:22;13.30;;;4.27;;
9304;SDS011;4690;52.422;13.486;2024-03-23T10:22:49;9.30;;;3.53;;
9304;SDS011;4690;52.422;13.486;2024-03-23T10:25:22;13.07;;;3.87;;
9304;SDS011;4690;52.422;13.486;2024-03-23T10:28:00;13.13;;;3.93;;
9304;SDS011;4690;52.422;13.486;2024-03-23T10:30:26;9.60;;;3.73;;
9304;SDS011;4690;52.422;13.486;2024-03-23T10:33:08;14.77;;;4.30;;
9304;SDS011;4690;52.422;13.486;2024-03-23T10:35:39;12.00;;;3.93;;
9304;SDS011;4690;52.422;13.486;2024-03-23T10:38:05;11.00;;;3.93;;
9304;SDS011;4690;52.422;13.486;2024-03-23T10:40:36;8.07;;;3.37;;
9304;SDS011;4690;52.422;13.486;2024-03-23T10:43:05;8.53;;;3.50;;
9304;SDS011;4690;52.422;13.486;2024-03-23T10:45:33;11.37;;;3.90;;
9304;SDS011;4690;52.422;13.486;2024-03-23T10:47:59;14.23;;;4.00;;
9304;SDS011;4690;52.422;13.486;2024-03-23T10:50:27;7.43;;;3.43;;
9304;SDS011;4690;52.422;13.486;2024-03-23T10:52:53;6.97;;;3.63;;
9304;SDS011;4690;52.422;13.486;2024-03-23T10:55:23;9.13;;;3.57;;
9304;SDS011;4690;52.422;13.486;2024-03-23T10:57:54;9.50;;;3.50;;
9304;SDS011;4690;52.422;13.486;2024-03-23T11:00:21;10.17;;;3.50;;
9304;SDS011;4690;52.422;13.486;2024-03-23T11:02:48;13.23;;;3.80;;
9304;SDS011;4690;52.422;13.486;2024-03-23T11:07:52;12.13;;;3.83;;
9304;SDS011;4690;52.422;13.486;2024-03-23T11:15:49;5.60;;;3.40;;
9304;SDS011;4690;52.422;13.486;2024-03-23T11:18:20;9.63;;;3.70;;
9304;SDS011;4690;52.422;13.486;2024-03-23T11:20:46;10.27;;;4.27;;
9304;SDS011;4690;52.422;13.486;2024-03-23T11:23:33;9.77;;;3.73;;
9304;SDS011;4690;52.422;13.486;2024-03-23T11:25:58;11.60;;;3.90;;
9304;SDS011;4690;52.422;13.486;2024-03-23T11:28:24;11.37;;;3.87;;
9304;SDS011;4690;52.422;13.486;2024-03-23T11:30:50;11.87;;;3.77;;
9304;SDS011;4690;52.422;13.486;2024-03-23T11:33:15;6.97;;;3.40;;
9304;SDS011;4690;52.422;13.486;2024-03-23T11:35:41;10.37;;;4.00;;
9304;SDS011;4690;52.422;13.486;2024-03-23T11:38:10;13.90;;;3.93;;
9304;SDS011;4690;52.422;13.486;2024-03-23T11:40:45;9.63;;;3.40;;
9304;SDS011;4690;52.422;13.486;2024-03-23T11:43:13;7.93;;;3.80;;
9304;SDS011;4690;52.422;13.486;2024-03-23T11:45:45;8.07;;;3.20;;
9304;SDS011;4690;52.422;13.486;2024-03-23T11:48:21;11.43;;;3.90;;
9304;SDS011;4690;52.422;13.486;2024-03-23T11:50:50;8.57;;;3.67;;
9304;SDS011;4690;52.422;13.486;2024-03-23T11:53:20;7.50;;;3.67;;
9304;SDS011;4690;52.422;13.486;2024-03-23T11:58:25;5.60;;;3.27;;
9304;SDS011;4690;52.422;13.486;2024-03-23T12:00:55;9.23;;;3.60;;
9304;SDS011;4690;52.422;13.486;2024-03-23T12:03:23;9.67;;;3.53;;
9304;SDS011;4690;52.422;13.486;2024-03-23T12:05:54;10.47;;;3.20;;
9304;SDS011;4690;52.422;13.486;2024-03-23T12:08:22;13.80;;;3.73;;
9304;SDS011;4690;52.422;13.486;2024-03-23T12:10:53;8.97;;;3.47;;
9304;SDS011;4690;52.422;13.486;2024-03-23T12:13:33;9.93;;;3.40;;
9304;SDS011;4690;52.422;13.486;2024-03-23T12:16:09;8.13;;;3.47;;
9304;SDS011;4690;52.422;13.486;2024-03-23T12:18:46;10.37;;;4.03;;
9304;SDS011;4690;52.422;13.486;2024-03-23T12:21:14;8.43;;;4.10;;
9304;SDS011;4690;52.422;13.486;2024-03-23T12:23:42;10.23;;;4.20;;
9304;SDS011;4690;52.422;13.486;2024-03-23T12:26:10;9.03;;;3.50;;
9304;SDS011;4690;52.422;13.486;2024-03-23T12:28:37;9.60;;;3.77;;
9304;SDS011;4690;52.422;13.486;2024-03-23T12:31:03;9.63;;;3.60;;
9304;SDS011;4690;52.422;13.486;2024-03-23T12:33:29;8.30;;;3.70;;
9304;SDS011;4690;52.422;13.486;2024-03-23T12:35:55;12.07;;;3.83;;
9304;SDS011;4690;52.422;13.486;2024-03-23T12:38:21;9.70;;;3.67;;
9304;SDS011;4690;52.422;13.486;2024-03-23T12:40:47;11.00;;;3.57;;
9304;SDS011;4690;52.422;13.486;2024-03-23T12:43:13;8.43;;;3.40;;
9304;SDS011;4690;52.422;13.486;2024-03-23T12:45:40;8.37;;;3.33;;
9304;SDS011;4690;52.422;13.486;2024-03-23T12:48:06;12.90;;;4.30;;
9304;SDS011;4690;52.422;13.486;2024-03-23T12:50:32;11.33;;;3.70;;
9304;SDS011;4690;52.422;13.486;2024-03-23T12:52:58;10.30;;;3.70;;
9304;SDS011;4690;52.422;13.486;2024-03-23T12:55:24;12.00;;;3.60;;
9304;SDS011;4690;52.422;13.486;2024-03-23T12:57:50;12.13;;;4.03;;
9304;SDS011;4690;52.422;13.486;2024-03-23T13:00:15;10.97;;;3.67;;
9304;SDS011;4690;52.422;13.486;2024-03-23T13:02:42;10.83;;;3.70;;
9304;SDS011;4690;52.422;13.486;2024-03-23T13:05:08;14.90;;;4.07;;
9304;SDS011;4690;52.422;13.486;2024-03-23T13:07:36;7.73;;;3.00;;
9304;SDS011;4690;52.422;13.486;2024-03-23T13:10:03;8.93;;;3.67;;
9304;SDS011;4690;52.422;13.486;2024-03-23T13:12:30;9.67;;;3.53;;
9304;SDS011;4690;52.422;13.486;2024-03-23T13:14:57;9.37;;;3.40;;
9304;SDS011;4690;52.422;13.486;2024-03-23T13:17:26;11.00;;;3.13;;
9304;SDS011;4690;52.422;13.486;2024-03-23T13:19:53;9.40;;;3.20;;
9304;SDS011;4690;52.422;13.486;2024-03-23T13:22:21;12.50;;;3.47;;
9304;SDS011;4690;52.422;13.486;2024-03-23T13:24:47;7.33;;;3.00;;
9304;SDS011;4690;52.422;13.486;2024-03-23T13:27:13;7.60;;;3.27;;
9304;SDS011;4690;52.422;13.486;2024-03-23T13:29:39;9.27;;;3.47;;
9304;SDS011;4690;52.422;13.486;2024-03-23T13:32:05;10.33;;;3.37;;
9304;SDS011;4690;52.422;13.486;2024-03-23T13:34:32;9.57;;;3.37;;
9304;SDS011;4690;52.422;13.486;2024-03-23T13:37:00;6.77;;;2.90;;
9304;SDS011;4690;52.422;13.486;2024-03-23T13:39:26;8.53;;;3.00;;
9304;SDS011;4690;52.422;13.486;2024-03-23T13:41:55;6.77;;;3.00;;
9304;SDS011;4690;52.422;13.486;2024-03-23T13:44:20;8.57;;;2.83;;
9304;SDS011;4690;52.422;13.486;2024-03-23T13:46:47;8.27;;;3.07;;
9304;SDS011;4690;52.422;13.486;2024-03-23T13:49:19;7.07;;;3.10;;
9304;SDS011;4690;52.422;13.486;2024-03-23T13:51:55;10.33;;;3.40;;
9304;SDS011;4690;52.422;13.486;2024-03-23T13:54:25;10.20;;;4.33;;
9304;SDS011;4690;52.422;13.486;2024-03-23T13:56:51;14.40;;;4.07;;
9304;SDS011;4690;52.422;13.486;2024-03-23T13:59:19;12.43;;;4.47;;
9304;SDS011;4690;52.422;13.486;2024-03-23T14:01:48;8.40;;;3.50;;
9304;SDS011;4690;52.422;13.486;2024-03-23T14:04:14;8.50;;;3.87;;
9304;SDS011;4690;52.422;13.486;2024-03-23T14:06:44;12.40;;;3.93;;
9304;SDS011;4690;52.422;13.486;2024-03-23T14:09:11;12.60;;;3.70;;
9304;SDS011;4690;52.422;13.486;2024-03-23T14:11:45;11.43;;;4.03;;
9304;SDS011;4690;52.422;13.486;2024-03-23T14:14:11;11.40;;;3.90;;
9304;SDS011;4690;52.422;13.486;2024-03-23T14:16:37;10.07;;;3.93;;
9304;SDS011;4690;52.422;13.486;2024-03-23T14:19:03;9.83;;;4.10;;
9304;SDS011;4690;52.422;13.486;2024-03-23T14:21:30;11.07;;;4.40;;
9304;SDS011;4690;52.422;13.486;2024-03-23T14:23:56;7.97;;;3.80;;
9304;SDS011;4690;52.422;13.486;2024-03-23T14:26:22;8.80;;;3.70;;
9304;SDS011;4690;52.422;13.486;2024-03-23T14:28:48;8.60;;;3.77;;
9304;SDS011;4690;52.422;13.486;2024-03-23T14:31:15;9.93;;;4.00;;
9304;SDS011;4690;52.422;13.486;2024-03-23T14:33:41;12.23;;;4.23;;
9304;SDS011;4690;52.422;13.486;2024-03-23T14:36:11;10.43;;;3.80;;
9304;SDS011;4690;52.422;13.486;2024-03-23T14:38:38;9.60;;;4.33;;
9304;SDS011;4690;52.422;13.486;2024-03-23T14:41:05;9.33;;;4.20;;
9304;SDS011;4690;52.422;13.486;2024-03-23T14:43:30;10.47;;;4.60;;
9304;SDS011;4690;52.422;13.486;2024-03-23T14:48:42;10.87;;;3.60;;
9304;SDS011;4690;52.422;13.486;2024-03-23T14:51:09;8.60;;;3.90;;
9304;SDS011;4690;52.422;13.486;2024-03-23T14:53:37;9.37;;;4.70;;
9304;SDS011;4690;52.422;13.486;2024-03-23T14:56:06;11.40;;;4.80;;
9304;SDS011;4690;52.422;13.486;2024-03-23T14:58:38;9.27;;;4.77;;
9304;SDS011;4690;52.422;13.486;2024-03-23T15:01:04;11.93;;;5.03;;
9304;SDS011;4690;52.422;13.486;2024-03-23T15:03:35;10.40;;;4.73;;
9304;SDS011;4690;52.422;13.486;2024-03-23T15:06:03;8.83;;;3.87;;
9304;SDS011;4690;52.422;13.486;2024-03-23T15:08:30;6.70;;;4.03;;
9304;SDS011;4690;52.422;13.486;2024-03-23T15:10:59;7.67;;;4.23;;
9304;SDS011;4690;52.422;13.486;2024-03-23T15:13:30;7.50;;;4.07;;
9304;SDS011;4690;52.422;13.486;2024-03-23T15:16:02;4.90;;;3.80;;
9304;SDS011;4690;52.422;13.486;2024-03-23T15:18:32;8.43;;;3.87;;
9304;SDS011;4690;52.422;13.486;2024-03-23T15:21:00;6.47;;;3.13;;
9304;SDS011;4690;52.422;13.486;2024-03-23T15:23:30;6.50;;;3.57;;
9304;SDS011;4690;52.422;13.486;2024-03-23T15:25:56;6.10;;;3.40;;
9304;SDS011;4690;52.422;13.486;2024-03-23T15:28:23;6.00;;;3.40;;
9304;SDS011;4690;52.422;13.486;2024-03-23T15:30:52;7.37;;;3.00;;
9304;SDS011;4690;52.422;13.486;2024-03-23T15:33:18;5.77;;;3.10;;
9304;SDS011;4690;52.422;13.486;2024-03-23T15:35:44;6.80;;;2.97;;
9304;SDS011;4690;52.422;13.486;2024-03-23T15:38:09;6.37;;;3.00;;
9304;SDS011;4690;52.422;13.486;2024-03-23T15:40:35;5.53;;;2.50;;
9304;SDS011;4690;52.422;13.486;2024-03-23T15:43:01;4.07;;;2.70;;
9304;SDS011;4690;52.422;13.486;2024-03-23T15:45:27;8.27;;;2.93;;
9304;SDS011;4690;52.422;13.486;2024-03-23T15:47:53;7.50;;;3.00;;
9304;SDS011;4690;52.422;13.486;2024-03-23T15:50:18;6.60;;;2.90;;
9304;SDS011;4690;52.422;13.486;2024-03-23T15:52:44;6.80;;;2.87;;
9304;SDS011;4690;52.422;13.486;2024-03-23T15:55:10;5.70;;;2.73;;
9304;SDS011;4690;52.422;13.486;2024-03-23T15:57:35;3.77;;;2.50;;
9304;SDS011;4690;52.422;13.486;2024-03-23T16:00:02;5.80;;;2.30;;
9304;SDS011;4690;52.422;13.486;2024-03-23T16:02:28;4.37;;;2.20;;